KDEH/DEH METAR and TAF weather

Enter ICAO airport designator
Station Type Date Time Source
KDEH METAR 2022/09/26 08:55 UTC NOAA

KDEH 260855Z AUTO VRB04G10KT 10SM CLR 08/04 A2992 RMK AO2


Station Type Date Time Source
KDEH Decoded METAR 2022/09/26 08:55 UTC NOAA

Decorah, IA, United States (KDEH) 43-17N 091-44W
Sep 26, 2022 - 04:55 AM EDT / 2022.09.26 0855 UTC
Wind: Variable at 5 MPH (4 KT) gusting to 12 MPH (10 KT):0
Visibility: 10 mile(s):0
Sky conditions: clear
Temperature: 46 F (8 C)
Dew Point: 39 F (4 C)
Relative Humidity: 75%
Pressure (altimeter): 29.92 in. Hg (1013 hPa)
ob: KDEH 260855Z AUTO VRB04G10KT 10SM CLR 08/04 A2992 RMK AO2
cycle: 9

Station Type Date Time Source
KDEH TAF UTC NOAA

Error!

Example: see airport list